sensor_id;sensor_type;location;lat;lon;timestamp;temperature;humidity
12811;DHT22;6470;47.654;7.896;2023-07-31T00:02:57;15.90;99.90
12811;DHT22;6470;47.654;7.896;2023-07-31T00:05:22;15.50;99.90
12811;DHT22;6470;47.654;7.896;2023-07-31T00:07:48;15.40;99.90
12811;DHT22;6470;47.654;7.896;2023-07-31T00:12:44;15.30;99.90
12811;DHT22;6470;47.654;7.896;2023-07-31T00:15:10;15.50;99.90
12811;DHT22;6470;47.654;7.896;2023-07-31T00:17:36;15.80;99.90
12811;DHT22;6470;47.654;7.896;2023-07-31T00:20:02;15.60;99.90
12811;DHT22;6470;47.654;7.896;2023-07-31T00:24:56;15.10;99.90
12811;DHT22;6470;47.654;7.896;2023-07-31T00:27:21;15.30;99.90
12811;DHT22;6470;47.654;7.896;2023-07-31T00:29:47;15.50;99.90
12811;DHT22;6470;47.654;7.896;2023-07-31T00:32:13;15.40;99.90
12811;DHT22;6470;47.654;7.896;2023-07-31T00:34:38;10.40;99.90
12811;DHT22;6470;47.654;7.896;2023-07-31T00:37:04;15.60;99.90
12811;DHT22;6470;47.654;7.896;2023-07-31T00:39:30;15.40;99.90
12811;DHT22;6470;47.654;7.896;2023-07-31T00:41:56;11.10;99.90
12811;DHT22;6470;47.654;7.896;2023-07-31T00:44:22;15.10;99.90
12811;DHT22;6470;47.654;7.896;2023-07-31T00:46:48;15.30;99.90
12811;DHT22;6470;47.654;7.896;2023-07-31T00:49:15;13.60;99.90
12811;DHT22;6470;47.654;7.896;2023-07-31T00:51:41;15.50;99.90
12811;DHT22;6470;47.654;7.896;2023-07-31T00:54:06;15.40;99.90
12811;DHT22;6470;47.654;7.896;2023-07-31T00:56:32;15.20;99.90
12811;DHT22;6470;47.654;7.896;2023-07-31T00:58:58;15.40;99.90
12811;DHT22;6470;47.654;7.896;2023-07-31T01:03:51;15.40;99.90
12811;DHT22;6470;47.654;7.896;2023-07-31T01:09:07;15.80;99.90
12811;DHT22;6470;47.654;7.896;2023-07-31T01:11:38;15.40;99.90
12811;DHT22;6470;47.654;7.896;2023-07-31T01:16:31;15.40;99.90
12811;DHT22;6470;47.654;7.896;2023-07-31T01:18:57;15.00;99.90
12811;DHT22;6470;47.654;7.896;2023-07-31T01:27:18;14.90;99.90
12811;DHT22;6470;47.654;7.896;2023-07-31T01:32:39;15.20;99.90
12811;DHT22;6470;47.654;7.896;2023-07-31T01:35:06;15.30;99.90
12811;DHT22;6470;47.654;7.896;2023-07-31T01:39:58;15.50;99.90
12811;DHT22;6470;47.654;7.896;2023-07-31T01:42:23;15.20;99.90
12811;DHT22;6470;47.654;7.896;2023-07-31T01:47:15;15.60;99.90
12811;DHT22;6470;47.654;7.896;2023-07-31T01:49:41;10.40;99.90
12811;DHT22;6470;47.654;7.896;2023-07-31T01:52:06;15.40;99.90
12811;DHT22;6470;47.654;7.896;2023-07-31T01:54:32;15.80;99.90
12811;DHT22;6470;47.654;7.896;2023-07-31T01:56:59;15.10;99.90
12811;DHT22;6470;47.654;7.896;2023-07-31T01:59:24;15.60;99.90
12811;DHT22;6470;47.654;7.896;2023-07-31T02:01:50;15.20;99.90
12811;DHT22;6470;47.654;7.896;2023-07-31T02:04:16;15.80;99.90
12811;DHT22;6470;47.654;7.896;2023-07-31T02:06:41;15.60;99.90
12811;DHT22;6470;47.654;7.896;2023-07-31T02:09:07;15.70;99.90
12811;DHT22;6470;47.654;7.896;2023-07-31T02:11:33;15.30;99.90
12811;DHT22;6470;47.654;7.896;2023-07-31T02:13:58;14.60;99.90
12811;DHT22;6470;47.654;7.896;2023-07-31T02:16:24;10.50;99.90
12811;DHT22;6470;47.654;7.896;2023-07-31T02:18:49;15.00;99.90
12811;DHT22;6470;47.654;7.896;2023-07-31T02:21:15;10.60;99.90
12811;DHT22;6470;47.654;7.896;2023-07-31T02:26:07;15.60;99.90
12811;DHT22;6470;47.654;7.896;2023-07-31T02:28:32;15.40;99.90
12811;DHT22;6470;47.654;7.896;2023-07-31T02:30:58;15.20;99.90
12811;DHT22;6470;47.654;7.896;2023-07-31T02:33:24;15.10;99.90
12811;DHT22;6470;47.654;7.896;2023-07-31T02:35:49;14.70;99.90
12811;DHT22;6470;47.654;7.896;2023-07-31T02:38:15;15.40;99.90
12811;DHT22;6470;47.654;7.896;2023-07-31T02:43:07;15.30;99.90
12811;DHT22;6470;47.654;7.896;2023-07-31T02:45:33;12.40;99.90
12811;DHT22;6470;47.654;7.896;2023-07-31T02:47:59;15.20;99.90
12811;DHT22;6470;47.654;7.896;2023-07-31T02:50:24;10.30;99.90
12811;DHT22;6470;47.654;7.896;2023-07-31T02:52:50;15.30;99.90
12811;DHT22;6470;47.654;7.896;2023-07-31T02:55:16;15.10;99.90
12811;DHT22;6470;47.654;7.896;2023-07-31T02:57:41;14.90;99.90
12811;DHT22;6470;47.654;7.896;2023-07-31T03:00:07;11.80;99.90
12811;DHT22;6470;47.654;7.896;2023-07-31T03:02:33;15.50;99.90
12811;DHT22;6470;47.654;7.896;2023-07-31T03:04:59;14.80;99.90
12811;DHT22;6470;47.654;7.896;2023-07-31T03:07:25;14.80;99.90
12811;DHT22;6470;47.654;7.896;2023-07-31T03:09:50;15.80;99.90
12811;DHT22;6470;47.654;7.896;2023-07-31T03:12:16;15.20;99.90
12811;DHT22;6470;47.654;7.896;2023-07-31T03:14:42;12.60;99.90
12811;DHT22;6470;47.654;7.896;2023-07-31T03:17:07;11.70;99.90
12811;DHT22;6470;47.654;7.896;2023-07-31T03:19:33;12.50;99.90
12811;DHT22;6470;47.654;7.896;2023-07-31T03:21:59;10.10;99.90
12811;DHT22;6470;47.654;7.896;2023-07-31T03:24:25;12.00;99.90
12811;DHT22;6470;47.654;7.896;2023-07-31T03:26:51;15.20;99.90
12811;DHT22;6470;47.654;7.896;2023-07-31T03:29:17;12.30;99.90
12811;DHT22;6470;47.654;7.896;2023-07-31T03:31:42;12.30;99.90
12811;DHT22;6470;47.654;7.896;2023-07-31T03:34:08;15.20;99.90
12811;DHT22;6470;47.654;7.896;2023-07-31T03:36:34;10.30;99.90
12811;DHT22;6470;47.654;7.896;2023-07-31T03:38:59;15.40;99.90
12811;DHT22;6470;47.654;7.896;2023-07-31T03:41:25;12.60;99.90
12811;DHT22;6470;47.654;7.896;2023-07-31T03:43:51;12.80;99.90
12811;DHT22;6470;47.654;7.896;2023-07-31T03:46:26;12.10;99.90
12811;DHT22;6470;47.654;7.896;2023-07-31T03:48:52;12.10;99.90
12811;DHT22;6470;47.654;7.896;2023-07-31T03:51:18;12.10;99.90
12811;DHT22;6470;47.654;7.896;2023-07-31T03:53:44;12.10;99.90
12811;DHT22;6470;47.654;7.896;2023-07-31T03:56:10;12.50;99.90
12811;DHT22;6470;47.654;7.896;2023-07-31T03:58:36;12.00;99.90
12811;DHT22;6470;47.654;7.896;2023-07-31T04:01:03;12.10;99.90
12811;DHT22;6470;47.654;7.896;2023-07-31T04:03:29;12.10;99.90
12811;DHT22;6470;47.654;7.896;2023-07-31T04:05:55;12.00;99.90
12811;DHT22;6470;47.654;7.896;2023-07-31T04:08:23;15.30;99.90
12811;DHT22;6470;47.654;7.896;2023-07-31T04:13:16;12.20;99.90
12811;DHT22;6470;47.654;7.896;2023-07-31T04:15:41;12.40;99.90
12811;DHT22;6470;47.654;7.896;2023-07-31T04:20:33;15.80;99.90
12811;DHT22;6470;47.654;7.896;2023-07-31T04:22:59;12.10;99.90
12811;DHT22;6470;47.654;7.896;2023-07-31T04:25:25;15.20;99.90
12811;DHT22;6470;47.654;7.896;2023-07-31T04:27:50;12.20;99.90
12811;DHT22;6470;47.654;7.896;2023-07-31T04:30:16;12.40;99.90
12811;DHT22;6470;47.654;7.896;2023-07-31T04:32:42;15.30;99.90
12811;DHT22;6470;47.654;7.896;2023-07-31T04:35:08;13.70;99.90
12811;DHT22;6470;47.654;7.896;2023-07-31T04:37:33;11.90;99.90
12811;DHT22;6470;47.654;7.896;2023-07-31T04:39:59;14.90;99.90
12811;DHT22;6470;47.654;7.896;2023-07-31T04:42:25;15.60;99.90
12811;DHT22;6470;47.654;7.896;2023-07-31T04:44:50;12.50;99.90
12811;DHT22;6470;47.654;7.896;2023-07-31T04:47:18;12.50;99.90
12811;DHT22;6470;47.654;7.896;2023-07-31T04:49:44;15.90;99.90
12811;DHT22;6470;47.654;7.896;2023-07-31T04:52:09;15.70;99.90
12811;DHT22;6470;47.654;7.896;2023-07-31T04:54:35;15.30;99.90
12811;DHT22;6470;47.654;7.896;2023-07-31T04:57:01;12.70;99.90
12811;DHT22;6470;47.654;7.896;2023-07-31T04:59:26;15.10;99.90
12811;DHT22;6470;47.654;7.896;2023-07-31T05:01:52;15.10;99.90
12811;DHT22;6470;47.654;7.896;2023-07-31T05:04:18;15.30;99.90
12811;DHT22;6470;47.654;7.896;2023-07-31T05:06:43;15.50;99.90
12811;DHT22;6470;47.654;7.896;2023-07-31T05:09:09;15.90;99.90
12811;DHT22;6470;47.654;7.896;2023-07-31T05:11:35;15.50;99.90
12811;DHT22;6470;47.654;7.896;2023-07-31T05:14:01;15.70;99.90
12811;DHT22;6470;47.654;7.896;2023-07-31T05:16:27;14.90;99.90
12811;DHT22;6470;47.654;7.896;2023-07-31T05:18:52;13.00;99.90
12811;DHT22;6470;47.654;7.896;2023-07-31T05:21:18;15.30;99.90
12811;DHT22;6470;47.654;7.896;2023-07-31T05:23:44;15.90;99.90
12811;DHT22;6470;47.654;7.896;2023-07-31T05:26:09;10.40;99.90
12811;DHT22;6470;47.654;7.896;2023-07-31T05:28:36;15.80;99.90
12811;DHT22;6470;47.654;7.896;2023-07-31T05:31:05;13.30;99.90
12811;DHT22;6470;47.654;7.896;2023-07-31T05:33:31;15.90;99.90
12811;DHT22;6470;47.654;7.896;2023-07-31T05:45:44;15.70;99.90
12811;DHT22;6470;47.654;7.896;2023-07-31T05:48:10;15.10;99.90
12811;DHT22;6470;47.654;7.896;2023-07-31T05:53:04;15.60;99.90
12811;DHT22;6470;47.654;7.896;2023-07-31T05:55:30;15.80;99.90
12811;DHT22;6470;47.654;7.896;2023-07-31T05:57:55;14.20;99.90
12811;DHT22;6470;47.654;7.896;2023-07-31T06:00:21;15.70;99.90
12811;DHT22;6470;47.654;7.896;2023-07-31T06:02:48;15.40;99.90
12811;DHT22;6470;47.654;7.896;2023-07-31T06:05:14;15.70;99.90
12811;DHT22;6470;47.654;7.896;2023-07-31T06:07:39;15.80;99.90
12811;DHT22;6470;47.654;7.896;2023-07-31T06:10:06;15.60;99.90
12811;DHT22;6470;47.654;7.896;2023-07-31T06:12:32;16.20;99.90
12811;DHT22;6470;47.654;7.896;2023-07-31T06:17:24;15.80;99.90
12811;DHT22;6470;47.654;7.896;2023-07-31T06:19:52;15.70;99.90
12811;DHT22;6470;47.654;7.896;2023-07-31T06:22:17;15.70;99.90
12811;DHT22;6470;47.654;7.896;2023-07-31T06:24:43;15.50;99.90
12811;DHT22;6470;47.654;7.896;2023-07-31T06:27:10;16.00;99.90
12811;DHT22;6470;47.654;7.896;2023-07-31T06:29:36;16.40;99.90
12811;DHT22;6470;47.654;7.896;2023-07-31T06:32:01;16.70;99.90
12811;DHT22;6470;47.654;7.896;2023-07-31T06:34:27;13.60;99.90
12811;DHT22;6470;47.654;7.896;2023-07-31T06:36:53;16.80;99.90
12811;DHT22;6470;47.654;7.896;2023-07-31T06:39:18;16.40;99.90
12811;DHT22;6470;47.654;7.896;2023-07-31T06:41:44;16.50;99.90
12811;DHT22;6470;47.654;7.896;2023-07-31T06:44:11;16.40;99.90
12811;DHT22;6470;47.654;7.896;2023-07-31T06:46:36;16.60;99.90
12811;DHT22;6470;47.654;7.896;2023-07-31T06:49:02;16.90;99.90
12811;DHT22;6470;47.654;7.896;2023-07-31T06:51:28;17.90;99.90
12811;DHT22;6470;47.654;7.896;2023-07-31T06:53:53;16.00;99.90
12811;DHT22;6470;47.654;7.896;2023-07-31T06:56:21;16.70;99.90
12811;DHT22;6470;47.654;7.896;2023-07-31T06:58:47;17.00;99.90
12811;DHT22;6470;47.654;7.896;2023-07-31T07:03:38;17.50;99.90
12811;DHT22;6470;47.654;7.896;2023-07-31T07:06:04;17.30;99.90
12811;DHT22;6470;47.654;7.896;2023-07-31T07:08:30;16.70;99.90
12811;DHT22;6470;47.654;7.896;2023-07-31T07:10:55;17.00;99.90
12811;DHT22;6470;47.654;7.896;2023-07-31T07:13:21;17.30;99.90
12811;DHT22;6470;47.654;7.896;2023-07-31T07:15:51;17.10;99.90
12811;DHT22;6470;47.654;7.896;2023-07-31T07:18:17;17.30;99.90
12811;DHT22;6470;47.654;7.896;2023-07-31T07:20:50;17.70;99.90
12811;DHT22;6470;47.654;7.896;2023-07-31T07:23:16;17.90;99.90
12811;DHT22;6470;47.654;7.896;2023-07-31T07:25:43;18.50;99.90
12811;DHT22;6470;47.654;7.896;2023-07-31T07:28:09;18.30;99.90
12811;DHT22;6470;47.654;7.896;2023-07-31T07:30:35;19.20;99.90
12811;DHT22;6470;47.654;7.896;2023-07-31T07:33:00;19.00;99.90
12811;DHT22;6470;47.654;7.896;2023-07-31T07:35:26;18.60;99.90
12811;DHT22;6470;47.654;7.896;2023-07-31T07:37:52;18.80;99.90
12811;DHT22;6470;47.654;7.896;2023-07-31T07:40:19;18.90;99.90
12811;DHT22;6470;47.654;7.896;2023-07-31T07:42:45;18.90;99.90
12811;DHT22;6470;47.654;7.896;2023-07-31T07:45:10;18.70;99.90
12811;DHT22;6470;47.654;7.896;2023-07-31T07:47:37;19.50;99.90
12811;DHT22;6470;47.654;7.896;2023-07-31T07:50:03;19.10;99.90
12811;DHT22;6470;47.654;7.896;2023-07-31T07:52:29;19.40;99.90
12811;DHT22;6470;47.654;7.896;2023-07-31T07:54:55;18.80;99.90
12811;DHT22;6470;47.654;7.896;2023-07-31T07:57:20;18.50;99.90
12811;DHT22;6470;47.654;7.896;2023-07-31T07:59:46;17.80;99.90
12811;DHT22;6470;47.654;7.896;2023-07-31T08:02:12;19.10;99.90
12811;DHT22;6470;47.654;7.896;2023-07-31T08:04:37;19.50;99.90
12811;DHT22;6470;47.654;7.896;2023-07-31T08:07:04;18.90;99.90
12811;DHT22;6470;47.654;7.896;2023-07-31T08:11:55;20.40;99.90
12811;DHT22;6470;47.654;7.896;2023-07-31T08:14:23;19.60;99.90
12811;DHT22;6470;47.654;7.896;2023-07-31T08:16:48;19.30;99.90
12811;DHT22;6470;47.654;7.896;2023-07-31T08:19:14;19.30;99.90
12811;DHT22;6470;47.654;7.896;2023-07-31T08:21:40;19.20;99.90
12811;DHT22;6470;47.654;7.896;2023-07-31T08:24:05;20.10;99.90
12811;DHT22;6470;47.654;7.896;2023-07-31T08:28:59;19.60;99.90
12811;DHT22;6470;47.654;7.896;2023-07-31T08:31:24;20.50;99.90
12811;DHT22;6470;47.654;7.896;2023-07-31T08:33:51;20.40;99.90
12811;DHT22;6470;47.654;7.896;2023-07-31T08:36:17;20.00;99.90
12811;DHT22;6470;47.654;7.896;2023-07-31T08:38:45;20.80;99.90
12811;DHT22;6470;47.654;7.896;2023-07-31T08:41:10;21.50;99.90
12811;DHT22;6470;47.654;7.896;2023-07-31T08:46:05;21.30;99.90
12811;DHT22;6470;47.654;7.896;2023-07-31T08:48:31;20.80;99.90
12811;DHT22;6470;47.654;7.896;2023-07-31T08:50:58;21.40;99.90
12811;DHT22;6470;47.654;7.896;2023-07-31T08:53:23;21.90;99.90
12811;DHT22;6470;47.654;7.896;2023-07-31T08:55:49;21.70;99.90
12811;DHT22;6470;47.654;7.896;2023-07-31T08:58:18;21.60;99.90
12811;DHT22;6470;47.654;7.896;2023-07-31T09:00:46;21.90;99.90
12811;DHT22;6470;47.654;7.896;2023-07-31T09:03:17;21.30;99.90
12811;DHT22;6470;47.654;7.896;2023-07-31T09:05:45;21.80;99.90
12811;DHT22;6470;47.654;7.896;2023-07-31T09:08:12;21.60;99.90
12811;DHT22;6470;47.654;7.896;2023-07-31T09:10:42;22.00;99.90
12811;DHT22;6470;47.654;7.896;2023-07-31T09:13:09;22.50;99.90
12811;DHT22;6470;47.654;7.896;2023-07-31T09:15:36;22.30;99.90
12811;DHT22;6470;47.654;7.896;2023-07-31T09:18:03;22.80;99.90
12811;DHT22;6470;47.654;7.896;2023-07-31T09:20:29;23.10;99.90
12811;DHT22;6470;47.654;7.896;2023-07-31T09:22:55;22.60;99.90
12811;DHT22;6470;47.654;7.896;2023-07-31T09:25:25;21.80;99.90
12811;DHT22;6470;47.654;7.896;2023-07-31T09:27:58;21.60;99.90
12811;DHT22;6470;47.654;7.896;2023-07-31T09:30:24;21.50;99.90
12811;DHT22;6470;47.654;7.896;2023-07-31T09:32:51;21.70;99.90
12811;DHT22;6470;47.654;7.896;2023-07-31T09:35:22;21.10;99.90
12811;DHT22;6470;47.654;7.896;2023-07-31T09:37:50;21.40;99.90
12811;DHT22;6470;47.654;7.896;2023-07-31T09:40:34;21.20;99.90
12811;DHT22;6470;47.654;7.896;2023-07-31T09:43:05;21.90;99.90
12811;DHT22;6470;47.654;7.896;2023-07-31T09:45:35;22.20;99.90
12811;DHT22;6470;47.654;7.896;2023-07-31T09:48:11;21.70;99.90
12811;DHT22;6470;47.654;7.896;2023-07-31T09:50:38;21.80;99.90
12811;DHT22;6470;47.654;7.896;2023-07-31T09:53:05;21.80;99.90
12811;DHT22;6470;47.654;7.896;2023-07-31T09:55:31;22.30;99.90
12811;DHT22;6470;47.654;7.896;2023-07-31T09:57:57;21.90;99.90
12811;DHT22;6470;47.654;7.896;2023-07-31T10:00:24;22.50;99.90
12811;DHT22;6470;47.654;7.896;2023-07-31T10:02:54;19.50;99.90
12811;DHT22;6470;47.654;7.896;2023-07-31T10:05:24;22.40;99.90
12811;DHT22;6470;47.654;7.896;2023-07-31T10:07:57;22.70;99.90
12811;DHT22;6470;47.654;7.896;2023-07-31T10:10:23;23.50;99.90
12811;DHT22;6470;47.654;7.896;2023-07-31T10:12:52;23.90;99.90
12811;DHT22;6470;47.654;7.896;2023-07-31T10:15:18;24.60;99.90
12811;DHT22;6470;47.654;7.896;2023-07-31T10:17:44;23.70;99.90
12811;DHT22;6470;47.654;7.896;2023-07-31T10:20:11;24.20;99.90
12811;DHT22;6470;47.654;7.896;2023-07-31T10:22:38;24.50;99.90
12811;DHT22;6470;47.654;7.896;2023-07-31T10:25:06;24.80;99.90
12811;DHT22;6470;47.654;7.896;2023-07-31T10:27:38;24.30;99.90
12811;DHT22;6470;47.654;7.896;2023-07-31T10:30:06;24.60;99.90
12811;DHT22;6470;47.654;7.896;2023-07-31T10:32:33;23.30;99.90
12811;DHT22;6470;47.654;7.896;2023-07-31T10:35:01;23.60;99.90
12811;DHT22;6470;47.654;7.896;2023-07-31T10:37:30;23.50;99.90
12811;DHT22;6470;47.654;7.896;2023-07-31T10:40:05;24.60;99.90
12811;DHT22;6470;47.654;7.896;2023-07-31T10:42:32;24.30;99.90
12811;DHT22;6470;47.654;7.896;2023-07-31T10:45:04;24.00;99.90
12811;DHT22;6470;47.654;7.896;2023-07-31T10:47:30;24.30;99.90
12811;DHT22;6470;47.654;7.896;2023-07-31T10:52:40;24.40;99.90
12811;DHT22;6470;47.654;7.896;2023-07-31T10:55:16;23.10;99.90
12811;DHT22;6470;47.654;7.896;2023-07-31T10:57:48;24.80;99.90
12811;DHT22;6470;47.654;7.896;2023-07-31T11:00:27;24.70;99.90
12811;DHT22;6470;47.654;7.896;2023-07-31T11:03:05;24.60;99.90
12811;DHT22;6470;47.654;7.896;2023-07-31T11:08:25;25.30;99.90
12811;DHT22;6470;47.654;7.896;2023-07-31T11:11:06;25.40;99.90
12811;DHT22;6470;47.654;7.896;2023-07-31T11:13:51;25.40;99.90
12811;DHT22;6470;47.654;7.896;2023-07-31T11:16:20;24.50;99.90
12811;DHT22;6470;47.654;7.896;2023-07-31T11:18:46;25.40;99.90
12811;DHT22;6470;47.654;7.896;2023-07-31T11:21:15;25.30;99.90
12811;DHT22;6470;47.654;7.896;2023-07-31T11:23:45;26.10;99.90
12811;DHT22;6470;47.654;7.896;2023-07-31T11:26:11;25.30;99.90
12811;DHT22;6470;47.654;7.896;2023-07-31T11:28:37;25.50;99.90
12811;DHT22;6470;47.654;7.896;2023-07-31T11:31:09;25.40;99.90
12811;DHT22;6470;47.654;7.896;2023-07-31T11:33:35;26.00;99.90
12811;DHT22;6470;47.654;7.896;2023-07-31T11:36:00;25.40;99.90
12811;DHT22;6470;47.654;7.896;2023-07-31T11:38:28;24.80;99.90
12811;DHT22;6470;47.654;7.896;2023-07-31T11:40:56;24.10;99.90
12811;DHT22;6470;47.654;7.896;2023-07-31T11:43:23;24.40;99.90
12811;DHT22;6470;47.654;7.896;2023-07-31T11:45:51;24.70;99.90
12811;DHT22;6470;47.654;7.896;2023-07-31T11:48:31;24.70;99.90
12811;DHT22;6470;47.654;7.896;2023-07-31T11:51:04;24.80;99.90
12811;DHT22;6470;47.654;7.896;2023-07-31T11:53:51;24.60;99.90
12811;DHT22;6470;47.654;7.896;2023-07-31T11:56:20;24.70;99.90
12811;DHT22;6470;47.654;7.896;2023-07-31T11:58:47;24.10;99.90
12811;DHT22;6470;47.654;7.896;2023-07-31T12:01:15;24.90;99.90
12811;DHT22;6470;47.654;7.896;2023-07-31T12:03:43;24.40;99.90
12811;DHT22;6470;47.654;7.896;2023-07-31T12:06:09;24.00;99.90
12811;DHT22;6470;47.654;7.896;2023-07-31T12:08:36;24.20;99.90
12811;DHT22;6470;47.654;7.896;2023-07-31T12:11:07;24.00;99.90
12811;DHT22;6470;47.654;7.896;2023-07-31T12:13:35;24.10;99.90
12811;DHT22;6470;47.654;7.896;2023-07-31T12:16:02;24.40;99.90
12811;DHT22;6470;47.654;7.896;2023-07-31T12:18:33;22.00;99.90
12811;DHT22;6470;47.654;7.896;2023-07-31T12:21:00;25.60;99.90
12811;DHT22;6470;47.654;7.896;2023-07-31T12:23:30;25.20;99.90
12811;DHT22;6470;47.654;7.896;2023-07-31T12:26:12;26.00;99.90
12811;DHT22;6470;47.654;7.896;2023-07-31T12:28:46;25.90;99.90
12811;DHT22;6470;47.654;7.896;2023-07-31T12:31:15;25.60;99.90
12811;DHT22;6470;47.654;7.896;2023-07-31T12:33:42;25.30;99.90
12811;DHT22;6470;47.654;7.896;2023-07-31T12:36:13;25.10;99.90
12811;DHT22;6470;47.654;7.896;2023-07-31T12:38:39;25.80;99.90
12811;DHT22;6470;47.654;7.896;2023-07-31T12:41:05;25.30;99.90
12811;DHT22;6470;47.654;7.896;2023-07-31T12:43:38;25.40;99.90
12811;DHT22;6470;47.654;7.896;2023-07-31T12:46:04;25.50;99.90
12811;DHT22;6470;47.654;7.896;2023-07-31T12:48:30;25.30;99.90
12811;DHT22;6470;47.654;7.896;2023-07-31T12:50:56;25.90;99.90
12811;DHT22;6470;47.654;7.896;2023-07-31T12:53:22;25.70;99.90
12811;DHT22;6470;47.654;7.896;2023-07-31T12:55:48;22.70;99.90
12811;DHT22;6470;47.654;7.896;2023-07-31T13:00:39;25.80;99.90
12811;DHT22;6470;47.654;7.896;2023-07-31T13:03:05;25.80;99.90
12811;DHT22;6470;47.654;7.896;2023-07-31T13:05:31;26.90;99.90
12811;DHT22;6470;47.654;7.896;2023-07-31T13:10:23;26.50;99.90
12811;DHT22;6470;47.654;7.896;2023-07-31T13:12:49;26.10;99.90
12811;DHT22;6470;47.654;7.896;2023-07-31T13:15:15;25.60;99.90
12811;DHT22;6470;47.654;7.896;2023-07-31T13:17:41;25.20;99.90
12811;DHT22;6470;47.654;7.896;2023-07-31T13:20:07;25.80;99.90
12811;DHT22;6470;47.654;7.896;2023-07-31T13:24:59;25.70;99.90
12811;DHT22;6470;47.654;7.896;2023-07-31T13:27:24;25.30;99.90
12811;DHT22;6470;47.654;7.896;2023-07-31T13:29:53;26.30;99.90
12811;DHT22;6470;47.654;7.896;2023-07-31T13:32:19;25.90;99.90
12811;DHT22;6470;47.654;7.896;2023-07-31T13:34:45;23.50;99.90
12811;DHT22;6470;47.654;7.896;2023-07-31T13:37:11;26.30;99.90
12811;DHT22;6470;47.654;7.896;2023-07-31T13:39:38;27.50;99.90
12811;DHT22;6470;47.654;7.896;2023-07-31T13:42:05;27.20;99.90
12811;DHT22;6470;47.654;7.896;2023-07-31T13:44:37;24.00;99.90
12811;DHT22;6470;47.654;7.896;2023-07-31T13:49:29;26.80;99.90
12811;DHT22;6470;47.654;7.896;2023-07-31T13:51:56;26.70;99.90
12811;DHT22;6470;47.654;7.896;2023-07-31T13:54:25;26.20;99.90
12811;DHT22;6470;47.654;7.896;2023-07-31T13:56:54;26.60;99.90
12811;DHT22;6470;47.654;7.896;2023-07-31T13:59:20;26.60;99.90
12811;DHT22;6470;47.654;7.896;2023-07-31T14:01:46;25.80;99.90
12811;DHT22;6470;47.654;7.896;2023-07-31T14:09:04;26.00;99.90
12811;DHT22;6470;47.654;7.896;2023-07-31T14:11:33;26.70;99.90
12811;DHT22;6470;47.654;7.896;2023-07-31T14:13:58;25.90;99.90
12811;DHT22;6470;47.654;7.896;2023-07-31T14:16:25;25.90;99.90
12811;DHT22;6470;47.654;7.896;2023-07-31T14:21:18;26.30;99.90
12811;DHT22;6470;47.654;7.896;2023-07-31T14:23:45;26.80;99.90
12811;DHT22;6470;47.654;7.896;2023-07-31T14:26:11;27.10;99.90
12811;DHT22;6470;47.654;7.896;2023-07-31T14:28:37;27.50;99.90
12811;DHT22;6470;47.654;7.896;2023-07-31T14:31:03;27.30;99.90
12811;DHT22;6470;47.654;7.896;2023-07-31T14:33:29;27.20;99.90
12811;DHT22;6470;47.654;7.896;2023-07-31T14:35:54;26.90;99.90
12811;DHT22;6470;47.654;7.896;2023-07-31T14:40:46;27.00;99.90
12811;DHT22;6470;47.654;7.896;2023-07-31T14:43:12;23.80;99.90
12811;DHT22;6470;47.654;7.896;2023-07-31T14:45:37;27.00;99.90
12811;DHT22;6470;47.654;7.896;2023-07-31T14:48:03;27.00;99.90
12811;DHT22;6470;47.654;7.896;2023-07-31T14:50:29;26.90;99.90
12811;DHT22;6470;47.654;7.896;2023-07-31T14:52:55;26.90;99.90
12811;DHT22;6470;47.654;7.896;2023-07-31T14:55:20;26.70;99.90
12811;DHT22;6470;47.654;7.896;2023-07-31T14:57:46;26.30;99.90
12811;DHT22;6470;47.654;7.896;2023-07-31T15:00:12;25.70;99.90
12811;DHT22;6470;47.654;7.896;2023-07-31T15:02:38;26.40;99.90
12811;DHT22;6470;47.654;7.896;2023-07-31T15:05:04;26.80;99.90
12811;DHT22;6470;47.654;7.896;2023-07-31T15:07:30;26.70;99.90
12811;DHT22;6470;47.654;7.896;2023-07-31T15:09:56;27.00;99.90
12811;DHT22;6470;47.654;7.896;2023-07-31T15:12:22;26.60;99.90
12811;DHT22;6470;47.654;7.896;2023-07-31T15:14:49;26.30;99.90
12811;DHT22;6470;47.654;7.896;2023-07-31T15:17:15;27.10;99.90
12811;DHT22;6470;47.654;7.896;2023-07-31T15:19:41;26.70;99.90
12811;DHT22;6470;47.654;7.896;2023-07-31T15:22:07;26.70;99.90
12811;DHT22;6470;47.654;7.896;2023-07-31T15:24:33;26.10;99.90
12811;DHT22;6470;47.654;7.896;2023-07-31T15:26:58;25.80;99.90
12811;DHT22;6470;47.654;7.896;2023-07-31T15:29:24;26.10;99.90
12811;DHT22;6470;47.654;7.896;2023-07-31T15:31:50;25.70;99.90
12811;DHT22;6470;47.654;7.896;2023-07-31T15:34:16;25.90;99.90
12811;DHT22;6470;47.654;7.896;2023-07-31T15:36:42;26.50;99.90
12811;DHT22;6470;47.654;7.896;2023-07-31T15:41:36;22.80;99.90
12811;DHT22;6470;47.654;7.896;2023-07-31T15:44:01;26.00;99.90
12811;DHT22;6470;47.654;7.896;2023-07-31T15:46:27;25.80;99.90
12811;DHT22;6470;47.654;7.896;2023-07-31T15:48:53;26.10;99.90
12811;DHT22;6470;47.654;7.896;2023-07-31T15:51:22;22.60;99.90
12811;DHT22;6470;47.654;7.896;2023-07-31T15:53:48;25.30;99.90
12811;DHT22;6470;47.654;7.896;2023-07-31T15:58:40;25.40;99.90
12811;DHT22;6470;47.654;7.896;2023-07-31T16:01:06;25.40;99.90
12811;DHT22;6470;47.654;7.896;2023-07-31T16:05:57;24.80;99.90
12811;DHT22;6470;47.654;7.896;2023-07-31T16:08:23;24.80;99.90
12811;DHT22;6470;47.654;7.896;2023-07-31T16:10:49;24.60;99.90
12811;DHT22;6470;47.654;7.896;2023-07-31T16:13:14;24.90;99.90
12811;DHT22;6470;47.654;7.896;2023-07-31T16:15:40;25.30;99.90
12811;DHT22;6470;47.654;7.896;2023-07-31T16:18:06;21.90;99.90
12811;DHT22;6470;47.654;7.896;2023-07-31T16:20:32;25.70;99.90
12811;DHT22;6470;47.654;7.896;2023-07-31T16:22:58;25.10;99.90
12811;DHT22;6470;47.654;7.896;2023-07-31T16:25:23;24.50;99.90
12811;DHT22;6470;47.654;7.896;2023-07-31T16:27:49;24.10;99.90
12811;DHT22;6470;47.654;7.896;2023-07-31T16:30:15;21.50;99.90
12811;DHT22;6470;47.654;7.896;2023-07-31T16:32:40;25.20;99.90
12811;DHT22;6470;47.654;7.896;2023-07-31T16:35:06;23.90;99.90
12811;DHT22;6470;47.654;7.896;2023-07-31T16:37:32;23.40;99.90
12811;DHT22;6470;47.654;7.896;2023-07-31T16:39:58;24.80;99.90
12811;DHT22;6470;47.654;7.896;2023-07-31T16:42:24;24.50;99.90
12811;DHT22;6470;47.654;7.896;2023-07-31T16:44:50;24.40;99.90
12811;DHT22;6470;47.654;7.896;2023-07-31T16:47:15;25.10;99.90
12811;DHT22;6470;47.654;7.896;2023-07-31T16:49:41;25.50;99.90
12811;DHT22;6470;47.654;7.896;2023-07-31T16:52:07;25.00;99.90
12811;DHT22;6470;47.654;7.896;2023-07-31T16:54:33;25.10;99.90
12811;DHT22;6470;47.654;7.896;2023-07-31T16:56:59;25.00;99.90
12811;DHT22;6470;47.654;7.896;2023-07-31T16:59:25;24.90;99.90
12811;DHT22;6470;47.654;7.896;2023-07-31T17:04:17;23.80;99.90
12811;DHT22;6470;47.654;7.896;2023-07-31T17:06:43;24.00;99.90
12811;DHT22;6470;47.654;7.896;2023-07-31T17:09:09;24.60;99.90
12811;DHT22;6470;47.654;7.896;2023-07-31T17:11:35;24.80;99.90
12811;DHT22;6470;47.654;7.896;2023-07-31T17:14:01;24.70;99.90
12811;DHT22;6470;47.654;7.896;2023-07-31T17:16:29;25.20;99.90
12811;DHT22;6470;47.654;7.896;2023-07-31T17:18:57;24.90;99.90